Terminal Aerodrome Forecast
Issued by NWS

Home | Current Version | Previous Version | Text Only | Print | Product List | Glossary On
Versions: 1 2 3 4 5 6 7 8 9 10 11 12 13 14 15 16 17
334
FTUS41 KPBZ 202326
TAFFKL
TAF
KFKL 202326Z 2100/2124 26006KT P6SM FEW250
     FM210900 28003KT 4SM BR SCT150
     FM211300 32004KT P6SM SCT150
      AMD LTD TO CLD VIS AND WIND=

USA.gov is the U.S. government's official web portal to all federal, state and local government web resources and services.